Seale, Alabama
Current Conditions -  °F | °C
As of 9:58 AM on Thursday 23 Oct 2014 (Local Time) from KLSF Reporting Station
Clear Clear  
Wind Chill: 58°   Ceiling: Unl
Heat Index: 58°   Visibility: 10mi
Dew Point: 46°   Wind: 6mph
Humidity: 64%   Direction: NA
Pressure: 30.14"   Gusts: NA
Location:  32.3°N, 85.17°W
Report Text: KLSF 231458Z AUTO VRB05KT 10SM CLR 15/08 A3014 RMK AO2 SLP209 60000 T01470080 50006
Loading
Personal Weather Stations






























Interactive Weather Map
Tropical Storm Tracking
New forecast layout! Learn more

10-Day Weather Forecast

Advertisements
Track Severe Weather on mobile